createdAt,value
2018-04-27T00:00:11.792Z,0.00
2018-04-27T00:01:12.019Z,0.00
2018-04-27T00:02:12.244Z,0.00
2018-04-27T00:03:12.473Z,0.00
2018-04-27T00:04:12.699Z,0.00
2018-04-27T00:05:12.944Z,0.00
2018-04-27T00:06:13.151Z,0.00
2018-04-27T00:07:13.380Z,0.00
2018-04-27T00:08:13.609Z,0.00
2018-04-27T00:09:13.830Z,0.00
2018-04-27T00:10:14.058Z,0.00
2018-04-27T00:11:14.288Z,0.00
2018-04-27T00:12:14.516Z,0.00
2018-04-27T00:13:14.739Z,0.00
2018-04-27T00:14:14.970Z,0.00
2018-04-27T00:15:15.202Z,0.00
2018-04-27T00:16:15.422Z,0.00
2018-04-27T00:17:15.646Z,0.00
2018-04-27T00:18:15.880Z,0.00
2018-04-27T00:19:16.102Z,0.00
2018-04-27T00:20:16.327Z,0.00
2018-04-27T00:21:16.556Z,0.00
2018-04-27T00:22:16.786Z,0.00
2018-04-27T00:23:17.011Z,0.00
2018-04-27T00:24:17.239Z,0.00
2018-04-27T00:25:17.457Z,0.00
2018-04-27T00:26:17.678Z,0.00
2018-04-27T00:27:17.912Z,0.00
2018-04-27T00:28:18.133Z,0.00
2018-04-27T00:29:18.359Z,0.00
2018-04-27T00:30:18.587Z,0.00
2018-04-27T00:31:18.813Z,0.00
2018-04-27T00:32:19.044Z,0.00
2018-04-27T00:33:19.269Z,0.00
2018-04-27T00:34:19.503Z,0.00
2018-04-27T00:35:19.722Z,0.00
2018-04-27T00:36:19.949Z,0.00
2018-04-27T00:37:20.175Z,0.00
2018-04-27T00:38:20.401Z,0.00
2018-04-27T00:39:20.627Z,0.00
2018-04-27T00:40:20.854Z,0.00
2018-04-27T00:41:21.081Z,0.00
2018-04-27T00:42:21.306Z,0.00
2018-04-27T00:43:21.531Z,0.00
2018-04-27T00:44:21.757Z,0.00
2018-04-27T00:45:21.984Z,0.00
2018-04-27T00:46:22.213Z,0.00
2018-04-27T00:47:22.444Z,0.00
2018-04-27T00:48:22.673Z,0.00
2018-04-27T00:49:22.894Z,0.00
2018-04-27T00:50:23.122Z,0.00
2018-04-27T00:51:23.346Z,0.00
2018-04-27T00:52:23.575Z,0.00
2018-04-27T00:53:23.801Z,0.00
2018-04-27T00:54:24.030Z,0.00
2018-04-27T00:55:24.259Z,0.00
2018-04-27T00:56:24.483Z,0.00
2018-04-27T00:57:24.708Z,0.00
2018-04-27T00:58:24.932Z,0.00
2018-04-27T00:59:25.160Z,0.00
2018-04-27T01:00:25.383Z,0.00
2018-04-27T01:01:25.611Z,0.00
2018-04-27T01:02:25.836Z,0.00
2018-04-27T01:03:26.063Z,0.00
2018-04-27T01:04:26.290Z,0.00
2018-04-27T01:05:26.516Z,0.00
2018-04-27T01:06:26.743Z,0.00
2018-04-27T01:07:26.965Z,0.00
2018-04-27T01:08:27.192Z,0.00
2018-04-27T01:09:27.418Z,0.00
2018-04-27T01:10:27.645Z,0.00
2018-04-27T01:11:27.873Z,0.00
2018-04-27T01:12:28.111Z,0.00
2018-04-27T01:13:28.326Z,0.00
2018-04-27T01:14:28.553Z,0.00
2018-04-27T01:15:28.782Z,0.00
2018-04-27T01:16:29.010Z,0.00
2018-04-27T01:17:29.235Z,0.00
2018-04-27T01:18:29.459Z,0.00
2018-04-27T01:19:29.690Z,0.00
2018-04-27T01:20:29.913Z,0.00
2018-04-27T01:21:30.139Z,0.00
2018-04-27T01:22:30.367Z,0.00
2018-04-27T01:23:30.599Z,0.00
2018-04-27T01:24:30.823Z,0.00
2018-04-27T01:25:31.050Z,0.00
2018-04-27T01:26:31.273Z,0.00
2018-04-27T01:27:31.494Z,0.00
2018-04-27T01:28:31.719Z,0.00
2018-04-27T01:29:31.946Z,0.00
2018-04-27T01:30:32.177Z,0.00
2018-04-27T01:31:32.407Z,0.00
2018-04-27T01:32:32.633Z,0.00
2018-04-27T01:33:32.859Z,0.00
2018-04-27T01:34:33.085Z,0.00
2018-04-27T01:35:33.315Z,0.00
2018-04-27T01:36:33.539Z,0.00
2018-04-27T01:37:33.766Z,0.00
2018-04-27T01:38:33.995Z,0.00
2018-04-27T01:39:34.237Z,0.00
2018-04-27T01:40:34.444Z,0.00
2018-04-27T01:41:34.670Z,0.00
2018-04-27T01:42:34.899Z,0.00
2018-04-27T01:43:35.125Z,0.00
2018-04-27T01:44:35.353Z,0.00
2018-04-27T01:45:35.580Z,0.00
2018-04-27T01:46:35.808Z,0.00
2018-04-27T01:47:36.035Z,0.00
2018-04-27T01:48:36.254Z,0.00
2018-04-27T01:49:36.483Z,0.00
2018-04-27T01:50:36.707Z,0.00
2018-04-27T01:51:36.933Z,0.00
2018-04-27T01:52:37.158Z,0.00
2018-04-27T01:53:37.387Z,0.00
2018-04-27T01:54:37.609Z,0.00
2018-04-27T01:55:37.838Z,0.00
2018-04-27T01:56:38.061Z,0.00
2018-04-27T01:57:38.291Z,0.00
2018-04-27T01:58:38.523Z,0.00
2018-04-27T01:59:38.748Z,0.00
2018-04-27T02:00:38.972Z,0.00
2018-04-27T02:01:39.197Z,0.00
2018-04-27T02:02:39.417Z,0.00
2018-04-27T02:03:39.644Z,0.00
2018-04-27T02:04:39.871Z,0.00
2018-04-27T02:05:40.100Z,0.00
2018-04-27T02:06:40.329Z,0.00
2018-04-27T02:07:40.553Z,0.00
2018-04-27T02:08:40.783Z,0.00
2018-04-27T02:09:41.002Z,0.00
2018-04-27T02:10:41.227Z,0.00
2018-04-27T02:11:41.453Z,0.00
2018-04-27T02:12:41.681Z,0.00
2018-04-27T02:13:41.906Z,0.00
2018-04-27T02:14:42.129Z,0.00
2018-04-27T02:15:42.356Z,0.00
2018-04-27T02:16:42.587Z,0.00
2018-04-27T02:17:42.807Z,0.00
2018-04-27T02:18:43.033Z,0.00
2018-04-27T02:19:43.261Z,0.00
2018-04-27T02:20:43.488Z,0.00
2018-04-27T02:21:43.711Z,0.00
2018-04-27T02:22:43.939Z,0.00
2018-04-27T02:23:44.159Z,0.00
2018-04-27T02:24:44.389Z,0.00
2018-04-27T02:25:44.613Z,0.00
2018-04-27T02:26:44.839Z,0.00
2018-04-27T02:27:45.064Z,0.00
2018-04-27T02:28:45.291Z,0.00
2018-04-27T02:29:45.519Z,0.00
2018-04-27T02:30:45.739Z,0.00
2018-04-27T02:31:45.964Z,0.00
2018-04-27T02:32:46.190Z,0.00
2018-04-27T02:33:46.416Z,0.00
2018-04-27T02:34:46.643Z,0.00
2018-04-27T02:35:46.869Z,0.00
2018-04-27T02:36:47.096Z,0.00
2018-04-27T02:37:47.320Z,0.00
2018-04-27T02:38:47.547Z,0.00
2018-04-27T02:39:47.777Z,0.00
2018-04-27T02:40:48.000Z,0.00
2018-04-27T02:41:48.233Z,0.00
2018-04-27T02:42:48.455Z,0.00
2018-04-27T02:43:48.687Z,0.00
2018-04-27T02:44:48.902Z,0.00
2018-04-27T02:45:49.139Z,0.00
2018-04-27T02:46:49.355Z,0.00
2018-04-27T02:47:49.585Z,0.00
2018-04-27T02:48:49.815Z,0.00
2018-04-27T02:49:50.041Z,0.00
2018-04-27T02:50:50.267Z,0.00
2018-04-27T02:51:50.495Z,0.00
2018-04-27T02:52:50.714Z,0.00
2018-04-27T02:53:50.951Z,0.00
2018-04-27T02:54:51.177Z,0.00
2018-04-27T02:55:51.403Z,0.00
2018-04-27T02:56:51.625Z,0.00
2018-04-27T02:57:51.850Z,0.00
2018-04-27T02:58:52.079Z,0.00
2018-04-27T02:59:52.306Z,0.00
2018-04-27T03:00:52.536Z,0.00
2018-04-27T03:01:52.766Z,0.00
2018-04-27T03:02:52.989Z,0.00
2018-04-27T03:03:53.215Z,0.00
2018-04-27T03:04:53.439Z,0.00
2018-04-27T03:05:53.668Z,0.00
2018-04-27T03:06:53.895Z,0.00
2018-04-27T03:07:54.124Z,0.00
2018-04-27T03:08:54.345Z,0.00
2018-04-27T03:09:54.574Z,0.00
2018-04-27T03:10:54.800Z,0.00
2018-04-27T03:11:55.033Z,0.00
2018-04-27T03:12:55.250Z,0.00
2018-04-27T03:13:55.479Z,0.00
2018-04-27T03:14:55.703Z,0.00
2018-04-27T03:15:55.928Z,0.00
2018-04-27T03:16:56.155Z,0.00
2018-04-27T03:17:56.380Z,0.00
2018-04-27T03:18:56.606Z,0.00
2018-04-27T03:19:56.839Z,0.00
2018-04-27T03:20:57.061Z,0.00
2018-04-27T03:21:57.285Z,0.00
2018-04-27T03:22:57.514Z,4.00
2018-04-27T03:23:57.789Z,4.00
2018-04-27T03:24:57.969Z,0.00
2018-04-27T03:25:58.191Z,0.00
2018-04-27T03:26:58.416Z,0.00
2018-04-27T03:27:58.643Z,4.00
2018-04-27T03:28:58.869Z,0.00
2018-04-27T03:29:59.095Z,4.00
2018-04-27T03:30:59.321Z,4.00
2018-04-27T03:31:59.547Z,4.00
2018-04-27T03:32:59.772Z,4.00
2018-04-27T03:33:59.995Z,4.00
2018-04-27T03:35:00.220Z,4.00
2018-04-27T03:36:00.446Z,8.00
2018-04-27T03:37:00.671Z,8.00
2018-04-27T03:38:00.897Z,12.00
2018-04-27T03:39:01.129Z,12.00
2018-04-27T03:40:01.350Z,12.00
2018-04-27T03:41:01.576Z,16.00
2018-04-27T03:42:01.801Z,20.00
2018-04-27T03:43:02.027Z,20.00
2018-04-27T03:44:02.252Z,28.00
2018-04-27T03:45:02.478Z,28.00
2018-04-27T03:46:02.702Z,32.00
2018-04-27T03:47:02.930Z,40.00
2018-04-27T03:48:03.156Z,44.00
2018-04-27T03:49:03.383Z,52.00
2018-04-27T03:50:03.607Z,60.00
2018-04-27T03:51:03.833Z,68.00
2018-04-27T03:52:04.065Z,80.00
2018-04-27T03:53:04.285Z,88.00
2018-04-27T03:54:04.516Z,100.00
2018-04-27T03:55:04.741Z,116.00
2018-04-27T03:56:04.966Z,128.00
2018-04-27T03:57:05.190Z,136.00
2018-04-27T03:58:05.410Z,152.00
2018-04-27T03:59:05.641Z,164.00
2018-04-27T04:00:05.863Z,176.00
2018-04-27T04:01:06.136Z,188.00
2018-04-27T04:02:06.316Z,204.00
2018-04-27T04:03:06.540Z,216.00
2018-04-27T04:04:06.768Z,236.00
2018-04-27T04:05:06.993Z,252.00
2018-04-27T04:06:07.213Z,276.00
2018-04-27T04:07:07.441Z,296.00
2018-04-27T04:08:07.665Z,320.00
2018-04-27T04:09:07.895Z,344.00
2018-04-27T04:10:08.119Z,372.00
2018-04-27T04:11:08.341Z,404.00
2018-04-27T04:12:08.572Z,440.00
2018-04-27T04:13:08.798Z,476.00
2018-04-27T04:14:09.026Z,512.00
2018-04-27T04:15:09.253Z,552.00
2018-04-27T04:16:09.477Z,596.00
2018-04-27T04:17:09.706Z,640.00
2018-04-27T04:18:09.931Z,688.00
2018-04-27T04:19:10.156Z,740.00
2018-04-27T04:20:10.380Z,792.00
2018-04-27T04:21:10.610Z,852.00
2018-04-27T04:22:10.833Z,912.00
2018-04-27T04:23:11.059Z,976.00
2018-04-27T04:24:11.292Z,1040.00
2018-04-27T04:25:11.512Z,1108.00
2018-04-27T04:26:11.739Z,1180.00
2018-04-27T04:27:11.963Z,1252.00
2018-04-27T04:28:12.188Z,1328.00
2018-04-27T04:29:12.416Z,1408.00
2018-04-27T04:30:12.640Z,1488.00
2018-04-27T04:31:12.865Z,1564.00
2018-04-27T04:32:13.090Z,1632.00
2018-04-27T04:33:13.315Z,1704.00
2018-04-27T04:34:13.542Z,1780.00
2018-04-27T04:35:13.773Z,1856.00
2018-04-27T04:36:13.995Z,1964.00
2018-04-27T04:37:14.223Z,2064.00
2018-04-27T04:38:14.481Z,2140.00
2018-04-27T04:39:14.675Z,2240.00
2018-04-27T04:40:14.907Z,2460.00
2018-04-27T04:41:15.128Z,2604.00
2018-04-27T04:42:15.357Z,2816.00
2018-04-27T04:43:15.614Z,3080.00
2018-04-27T04:44:15.807Z,3412.00
2018-04-27T04:45:16.033Z,3720.00
2018-04-27T04:46:16.260Z,3848.00
2018-04-27T04:47:16.489Z,4212.00
2018-04-27T04:48:16.716Z,4420.00
2018-04-27T04:49:16.938Z,4360.00
2018-04-27T04:50:17.171Z,4068.00
2018-04-27T04:51:17.397Z,4864.00
2018-04-27T04:52:17.625Z,4888.00
2018-04-27T04:53:17.855Z,4208.00
2018-04-27T04:54:18.079Z,4044.00
2018-04-27T04:55:18.307Z,4628.00
2018-04-27T04:56:18.537Z,4960.00
2018-04-27T04:57:18.767Z,4704.00
2018-04-27T04:58:18.993Z,5196.00
2018-04-27T04:59:19.216Z,5820.00
2018-04-27T05:00:19.442Z,5992.00
2018-04-27T05:01:19.693Z,5812.00
2018-04-27T05:02:19.897Z,5008.00
2018-04-27T05:03:20.124Z,4360.00
2018-04-27T05:04:20.352Z,4492.00
2018-04-27T05:05:20.577Z,4232.00
2018-04-27T05:06:20.810Z,4172.00
2018-04-27T05:07:21.037Z,4260.00
2018-04-27T05:08:21.347Z,4496.00
2018-04-27T05:09:21.497Z,4460.00
2018-04-27T05:10:21.724Z,4408.00
2018-04-27T05:11:21.951Z,4204.00
2018-04-27T05:12:22.184Z,4072.00
2018-04-27T05:13:22.466Z,3940.00
2018-04-27T05:14:22.635Z,3860.00
2018-04-27T05:15:22.866Z,3820.00
2018-04-27T05:16:23.093Z,3828.00
2018-04-27T05:17:23.327Z,3828.00
2018-04-27T05:18:23.553Z,3752.00
2018-04-27T05:19:23.779Z,3616.00
2018-04-27T05:20:24.006Z,3484.00
2018-04-27T05:21:24.236Z,3360.00
2018-04-27T05:22:24.463Z,3244.00
2018-04-27T05:23:24.690Z,3128.00
2018-04-27T05:24:24.920Z,3040.00
2018-04-27T05:25:25.146Z,2996.00
2018-04-27T05:26:25.371Z,2976.00
2018-04-27T05:27:25.601Z,2968.00
2018-04-27T05:28:25.828Z,2976.00
2018-04-27T05:29:26.055Z,2988.00
2018-04-27T05:30:26.282Z,3012.00
2018-04-27T05:31:26.512Z,3036.00
2018-04-27T05:32:26.725Z,3064.00
2018-04-27T05:33:26.956Z,3120.00
2018-04-27T05:34:27.185Z,3200.00
2018-04-27T05:35:27.412Z,3288.00
2018-04-27T05:36:27.639Z,3400.00
2018-04-27T05:37:27.867Z,3524.00
2018-04-27T05:38:28.096Z,3684.00
2018-04-27T05:39:28.323Z,3936.00
2018-04-27T05:40:28.549Z,4180.00
2018-04-27T05:41:28.778Z,4924.00
2018-04-27T05:42:29.008Z,7000.00
2018-04-27T05:43:29.235Z,6888.00
2018-04-27T05:44:29.466Z,6716.00
2018-04-27T05:45:29.691Z,6748.00
2018-04-27T05:46:29.985Z,6716.00
2018-04-27T05:47:30.147Z,6692.00
2018-04-27T05:48:30.374Z,6952.00
2018-04-27T05:49:30.600Z,7152.00
2018-04-27T05:50:30.828Z,6956.00
2018-04-27T05:51:31.057Z,7436.00
2018-04-27T05:52:31.283Z,7336.00
2018-04-27T05:53:31.509Z,7456.00
2018-04-27T05:54:31.738Z,7448.00
2018-04-27T05:55:32.028Z,6708.00
2018-04-27T05:56:32.195Z,7388.00
2018-04-27T05:57:32.422Z,8104.00
2018-04-27T05:58:32.652Z,6248.00
2018-04-27T05:59:32.878Z,6444.00
2018-04-27T06:00:33.110Z,6676.00
2018-04-27T06:01:33.339Z,8236.00
2018-04-27T06:02:33.568Z,8600.00
2018-04-27T06:03:33.800Z,8564.00
2018-04-27T06:04:34.036Z,8564.00
2018-04-27T06:05:34.263Z,8748.00
2018-04-27T06:06:34.492Z,8672.00
2018-04-27T06:07:34.726Z,8708.00
2018-04-27T06:08:34.952Z,8660.00
2018-04-27T06:09:35.184Z,8884.00
2018-04-27T06:10:35.413Z,7984.00
2018-04-27T06:11:35.644Z,8600.00
2018-04-27T06:12:35.876Z,9368.00
2018-04-27T06:13:36.102Z,9484.00
2018-04-27T06:14:36.332Z,8996.00
2018-04-27T06:15:36.569Z,9048.00
2018-04-27T06:16:36.796Z,7272.00
2018-04-27T06:17:37.034Z,7340.00
2018-04-27T06:18:37.263Z,7008.00
2018-04-27T06:19:37.495Z,6844.00
2018-04-27T06:20:37.725Z,6872.00
2018-04-27T06:21:37.956Z,6836.00
2018-04-27T06:22:38.187Z,6780.00
2018-04-27T06:23:38.419Z,6520.00
2018-04-27T06:24:38.650Z,6424.00
2018-04-27T06:25:38.881Z,6436.00
2018-04-27T06:26:39.115Z,6316.00
2018-04-27T06:27:39.345Z,6252.00
2018-04-27T06:28:39.574Z,6136.00
2018-04-27T06:29:39.806Z,6140.00
2018-04-27T06:30:40.037Z,6308.00
2018-04-27T06:31:40.327Z,6416.00
2018-04-27T06:32:40.496Z,6548.00
2018-04-27T06:33:40.728Z,6644.00
2018-04-27T06:34:40.955Z,7164.00
2018-04-27T06:35:41.187Z,7672.00
2018-04-27T06:36:41.416Z,8176.00
2018-04-27T06:37:41.651Z,8548.00
2018-04-27T06:38:41.895Z,7756.00
2018-04-27T06:39:42.111Z,8100.00
2018-04-27T06:40:42.340Z,8744.00
2018-04-27T06:41:42.569Z,9276.00
2018-04-27T06:42:42.798Z,10008.00
2018-04-27T06:43:43.027Z,9052.00
2018-04-27T06:44:43.264Z,7632.00
2018-04-27T06:45:43.568Z,7900.00
2018-04-27T06:46:43.718Z,8320.00
2018-04-27T06:47:43.948Z,7608.00
2018-04-27T06:48:44.177Z,8380.00
2018-04-27T06:49:44.414Z,8848.00
2018-04-27T06:50:44.651Z,9576.00
2018-04-27T06:51:44.869Z,8372.00
2018-04-27T06:52:45.098Z,9128.00
2018-04-27T06:53:45.408Z,7168.00
2018-04-27T06:54:45.560Z,6072.00
2018-04-27T06:55:45.791Z,8236.00
2018-04-27T06:56:46.020Z,9020.00
2018-04-27T06:57:46.248Z,8228.00
2018-04-27T06:58:46.477Z,8960.00
2018-04-27T06:59:46.710Z,9744.00
2018-04-27T07:00:46.947Z,9580.00
2018-04-27T07:01:47.173Z,7732.00
2018-04-27T07:02:47.406Z,7396.00
2018-04-27T07:03:47.637Z,7880.00
2018-04-27T07:04:47.866Z,7632.00
2018-04-27T07:05:48.103Z,6892.00
2018-04-27T07:06:48.327Z,7820.00
2018-04-27T07:07:48.554Z,7328.00
2018-04-27T07:08:48.784Z,8124.00
2018-04-27T07:09:49.012Z,8512.00
2018-04-27T07:10:49.242Z,8992.00
2018-04-27T07:11:49.471Z,8936.00
2018-04-27T07:12:49.708Z,8328.00
2018-04-27T07:13:49.942Z,8368.00
2018-04-27T07:14:50.173Z,8592.00
2018-04-27T07:15:50.400Z,8964.00
2018-04-27T07:16:50.646Z,9304.00
2018-04-27T07:17:50.864Z,9428.00
2018-04-27T07:18:51.095Z,9788.00
2018-04-27T07:19:51.325Z,9916.00
2018-04-27T07:20:51.555Z,10248.00
2018-04-27T07:21:51.791Z,10728.00
2018-04-27T07:22:52.015Z,9744.00
2018-04-27T07:23:52.246Z,10160.00
2018-04-27T07:24:52.475Z,9924.00
2018-04-27T07:25:52.739Z,10000.00
2018-04-27T07:26:52.939Z,10552.00
2018-04-27T07:27:53.168Z,10096.00
2018-04-27T07:28:53.398Z,9624.00
2018-04-27T07:29:53.629Z,9740.00
2018-04-27T07:30:53.857Z,9464.00
2018-04-27T07:31:54.083Z,9364.00
2018-04-27T07:32:54.316Z,9684.00
2018-04-27T07:33:54.543Z,9524.00
2018-04-27T07:34:54.771Z,9516.00
2018-04-27T07:35:54.999Z,9748.00
2018-04-27T07:36:55.230Z,10040.00
2018-04-27T07:37:55.461Z,9940.00
2018-04-27T07:38:55.692Z,9496.00
2018-04-27T07:39:55.924Z,9388.00
2018-04-27T07:40:56.171Z,9324.00
2018-04-27T07:41:56.400Z,9656.00
2018-04-27T07:42:56.637Z,9664.00
2018-04-27T07:43:56.859Z,10008.00
2018-04-27T07:44:57.094Z,10276.00
2018-04-27T07:45:57.328Z,10524.00
2018-04-27T07:46:57.559Z,10112.00
2018-04-27T07:47:57.796Z,9720.00
2018-04-27T07:48:58.016Z,9268.00
2018-04-27T07:49:58.246Z,8824.00
2018-04-27T07:50:58.479Z,8568.00
2018-04-27T07:51:58.708Z,8632.00
2018-04-27T07:52:58.945Z,8888.00
2018-04-27T07:53:59.172Z,9064.00
2018-04-27T07:54:59.408Z,8956.00
2018-04-27T07:55:59.634Z,9024.00
2018-04-27T07:56:59.870Z,9244.00
2018-04-27T07:58:00.098Z,9704.00
2018-04-27T07:59:00.329Z,9492.00
2018-04-27T08:00:00.559Z,9144.00
2018-04-27T08:01:00.789Z,9296.00
2018-04-27T08:02:01.045Z,9368.00
2018-04-27T08:03:01.272Z,9424.00
2018-04-27T08:04:01.503Z,9400.00
2018-04-27T08:05:01.734Z,9376.00
2018-04-27T08:06:01.964Z,9496.00
2018-04-27T08:07:02.195Z,9552.00
2018-04-27T08:08:02.430Z,9644.00
2018-04-27T08:09:02.653Z,10000.00
2018-04-27T08:10:02.889Z,9916.00
2018-04-27T08:11:03.123Z,9716.00
2018-04-27T08:12:03.349Z,9724.00
2018-04-27T08:13:03.586Z,9648.00
2018-04-27T08:14:03.812Z,9608.00
2018-04-27T08:15:04.050Z,9304.00
2018-04-27T08:16:04.280Z,9020.00
2018-04-27T08:17:04.512Z,8860.00
2018-04-27T08:18:04.746Z,8964.00
2018-04-27T08:19:04.971Z,8964.00
2018-04-27T08:20:05.204Z,8924.00
2018-04-27T08:21:05.444Z,9052.00
2018-04-27T08:22:05.658Z,9024.00
2018-04-27T08:23:05.878Z,8844.00
2018-04-27T08:24:06.108Z,8712.00
2018-04-27T08:25:06.337Z,8952.00
2018-04-27T08:26:06.571Z,8664.00
2018-04-27T08:27:06.803Z,8608.00
2018-04-27T08:28:07.040Z,8864.00
2018-04-27T08:29:07.269Z,9088.00
2018-04-27T08:30:07.499Z,9204.00
2018-04-27T08:31:07.733Z,9044.00
2018-04-27T08:32:07.966Z,9152.00
2018-04-27T08:33:08.198Z,9280.00
2018-04-27T08:34:08.433Z,9444.00
2018-04-27T08:35:08.671Z,9536.00
2018-04-27T08:36:08.978Z,9532.00
2018-04-27T08:37:09.130Z,9304.00
2018-04-27T08:38:09.363Z,9332.00
2018-04-27T08:39:09.597Z,9592.00
2018-04-27T08:40:09.825Z,9716.00
2018-04-27T08:41:10.055Z,9844.00
2018-04-27T08:42:10.286Z,10004.00
2018-04-27T08:43:10.518Z,9896.00
2018-04-27T08:44:10.749Z,9972.00
2018-04-27T08:45:10.980Z,10244.00
2018-04-27T08:46:11.207Z,10104.00
2018-04-27T08:47:11.445Z,10404.00
2018-04-27T08:48:11.677Z,10624.00
2018-04-27T08:49:11.909Z,10536.00
2018-04-27T08:50:12.137Z,10528.00
2018-04-27T08:51:12.369Z,10296.00
2018-04-27T08:52:12.605Z,10328.00
2018-04-27T08:53:12.832Z,10380.00
2018-04-27T08:54:13.068Z,10348.00
2018-04-27T08:55:13.296Z,10724.00
2018-04-27T08:56:13.527Z,10588.00
2018-04-27T08:57:13.762Z,10576.00
2018-04-27T08:58:13.994Z,10680.00
2018-04-27T08:59:14.225Z,10504.00
2018-04-27T09:00:14.458Z,10604.00
2018-04-27T09:01:14.692Z,10816.00
2018-04-27T09:02:14.929Z,10836.00
2018-04-27T09:03:15.152Z,10984.00
2018-04-27T09:04:15.396Z,10988.00
2018-04-27T09:05:15.619Z,10740.00
2018-04-27T09:06:15.862Z,10864.00
2018-04-27T09:07:16.086Z,10952.00
2018-04-27T09:08:16.319Z,10896.00
2018-04-27T09:09:16.549Z,11028.00
2018-04-27T09:10:16.777Z,10860.00
2018-04-27T09:11:17.009Z,10596.00
2018-04-27T09:12:17.242Z,10552.00
2018-04-27T09:13:17.481Z,10536.00
2018-04-27T09:14:17.707Z,10560.00
2018-04-27T09:15:17.943Z,10540.00
2018-04-27T09:16:18.276Z,10376.00
2018-04-27T09:17:18.409Z,10300.00
2018-04-27T09:18:18.641Z,10096.00
2018-04-27T09:19:18.874Z,10180.00
2018-04-27T09:20:19.115Z,9992.00
2018-04-27T09:21:19.339Z,10160.00
2018-04-27T09:22:19.583Z,10164.00
2018-04-27T09:23:19.809Z,10276.00
2018-04-27T09:24:20.038Z,10260.00
2018-04-27T09:25:20.275Z,10132.00
2018-04-27T09:26:20.505Z,10332.00
2018-04-27T09:27:20.738Z,10196.00
2018-04-27T09:28:20.973Z,10172.00
2018-04-27T09:29:21.205Z,10292.00
2018-04-27T09:30:21.436Z,10432.00
2018-04-27T09:31:21.673Z,10412.00
2018-04-27T09:32:21.915Z,10244.00
2018-04-27T09:33:22.136Z,9660.00
2018-04-27T09:34:22.372Z,10444.00
2018-04-27T09:35:22.598Z,10460.00
2018-04-27T09:36:22.832Z,10264.00
2018-04-27T09:37:23.097Z,10372.00
2018-04-27T09:38:23.297Z,10340.00
2018-04-27T09:39:23.532Z,10204.00
2018-04-27T09:40:23.762Z,10004.00
2018-04-27T09:41:23.997Z,10240.00
2018-04-27T09:42:24.235Z,10268.00
2018-04-27T09:43:24.461Z,10204.00
2018-04-27T09:44:24.693Z,10144.00
2018-04-27T09:45:24.930Z,10176.00
2018-04-27T09:46:25.161Z,10164.00
2018-04-27T09:47:25.393Z,9968.00
2018-04-27T09:48:25.626Z,10392.00
2018-04-27T09:49:25.911Z,10552.00
2018-04-27T09:50:26.087Z,10548.00
2018-04-27T09:51:26.321Z,10132.00
2018-04-27T09:52:26.551Z,10004.00
2018-04-27T09:53:26.778Z,10420.00
2018-04-27T09:54:27.009Z,10512.00
2018-04-27T09:55:27.242Z,10304.00
2018-04-27T09:56:27.471Z,10384.00
2018-04-27T09:57:27.770Z,10624.00
2018-04-27T09:58:27.933Z,10936.00
2018-04-27T09:59:28.166Z,10600.00
2018-04-27T10:00:28.396Z,11364.00
2018-04-27T10:01:28.631Z,11088.00
2018-04-27T10:02:28.860Z,10608.00
2018-04-27T10:03:29.091Z,10656.00
2018-04-27T10:04:29.326Z,10160.00
2018-04-27T10:05:29.560Z,9672.00
2018-04-27T10:06:29.793Z,9808.00
2018-04-27T10:07:30.031Z,10920.00
2018-04-27T10:08:30.260Z,11812.00
2018-04-27T10:09:30.502Z,12076.00
2018-04-27T10:10:30.736Z,12328.00
2018-04-27T10:11:30.977Z,12048.00
2018-04-27T10:12:31.200Z,12352.00
2018-04-27T10:13:31.431Z,12244.00
2018-04-27T10:14:31.665Z,12380.00
2018-04-27T10:15:31.901Z,11072.00
2018-04-27T10:16:32.124Z,12064.00
2018-04-27T10:17:32.372Z,11972.00
2018-04-27T10:18:32.603Z,11724.00
2018-04-27T10:19:32.833Z,11604.00
2018-04-27T10:20:33.094Z,11576.00
2018-04-27T10:21:33.303Z,11536.00
2018-04-27T10:22:33.537Z,10756.00
2018-04-27T10:23:33.774Z,11588.00
2018-04-27T10:24:33.998Z,10636.00
2018-04-27T10:25:34.298Z,10456.00
2018-04-27T10:26:34.496Z,10948.00
2018-04-27T10:27:34.729Z,10704.00
2018-04-27T10:28:34.968Z,10056.00
2018-04-27T10:29:35.194Z,10416.00
2018-04-27T10:30:35.429Z,10728.00
2018-04-27T10:31:35.679Z,10188.00
2018-04-27T10:32:35.893Z,10220.00
2018-04-27T10:33:36.128Z,10392.00
2018-04-27T10:34:36.358Z,10708.00
2018-04-27T10:35:36.590Z,10656.00
2018-04-27T10:36:36.890Z,10728.00
2018-04-27T10:37:37.076Z,10540.00
2018-04-27T10:38:37.307Z,10480.00
2018-04-27T10:39:37.542Z,10696.00
2018-04-27T10:40:37.773Z,10640.00
2018-04-27T10:41:38.004Z,10272.00
2018-04-27T10:42:38.238Z,9428.00
2018-04-27T10:43:38.468Z,9312.00
2018-04-27T10:44:38.699Z,9232.00
2018-04-27T10:45:38.931Z,9212.00
2018-04-27T10:46:39.172Z,9260.00
2018-04-27T10:47:39.402Z,9400.00
2018-04-27T10:48:39.630Z,9500.00
2018-04-27T10:49:39.865Z,11040.00
2018-04-27T10:50:40.096Z,11820.00
2018-04-27T10:51:40.329Z,11996.00
2018-04-27T10:52:40.563Z,12112.00
2018-04-27T10:53:40.796Z,12412.00
2018-04-27T10:54:41.033Z,12456.00
2018-04-27T10:55:41.264Z,12104.00
2018-04-27T10:56:41.503Z,11032.00
2018-04-27T10:57:41.735Z,9740.00
2018-04-27T10:58:41.962Z,9612.00
2018-04-27T10:59:42.206Z,9520.00
2018-04-27T11:00:42.432Z,9352.00
2018-04-27T11:01:42.667Z,9396.00
2018-04-27T11:02:42.898Z,9140.00
2018-04-27T11:03:43.134Z,8876.00
2018-04-27T11:04:43.364Z,9212.00
2018-04-27T11:05:43.605Z,11020.00
2018-04-27T11:06:43.829Z,11048.00
2018-04-27T11:07:44.060Z,11244.00
2018-04-27T11:08:44.290Z,10088.00
2018-04-27T11:09:44.528Z,9820.00
2018-04-27T11:10:44.757Z,9404.00
2018-04-27T11:11:44.982Z,9052.00
2018-04-27T11:12:45.213Z,8836.00
2018-04-27T11:13:45.451Z,8524.00
2018-04-27T11:14:45.689Z,8776.00
2018-04-27T11:15:45.913Z,8944.00
2018-04-27T11:16:46.201Z,8924.00
2018-04-27T11:17:46.374Z,8924.00
2018-04-27T11:18:46.605Z,10388.00
2018-04-27T11:19:46.836Z,10908.00
2018-04-27T11:20:47.069Z,11592.00
2018-04-27T11:21:47.298Z,12004.00
2018-04-27T11:22:47.525Z,12556.00
2018-04-27T11:23:47.767Z,12744.00
2018-04-27T11:24:47.993Z,11984.00
2018-04-27T11:25:48.262Z,12204.00
2018-04-27T11:26:48.462Z,11760.00
2018-04-27T11:27:48.686Z,11400.00
2018-04-27T11:28:48.923Z,11024.00
2018-04-27T11:29:49.158Z,10908.00
2018-04-27T11:30:49.387Z,10444.00
2018-04-27T11:31:49.623Z,9760.00
2018-04-27T11:32:49.856Z,10000.00
2018-04-27T11:33:50.089Z,9736.00
2018-04-27T11:34:50.326Z,10192.00
2018-04-27T11:35:50.563Z,10308.00
2018-04-27T11:36:50.787Z,10324.00
2018-04-27T11:37:51.021Z,10388.00
2018-04-27T11:38:51.262Z,10304.00
2018-04-27T11:39:51.493Z,10700.00
2018-04-27T11:40:51.714Z,9888.00
2018-04-27T11:41:51.963Z,8288.00
2018-04-27T11:42:52.197Z,9264.00
2018-04-27T11:43:52.436Z,9160.00
2018-04-27T11:44:52.670Z,9932.00
2018-04-27T11:45:52.903Z,9832.00
2018-04-27T11:46:53.135Z,9704.00
2018-04-27T11:47:53.372Z,10032.00
2018-04-27T11:48:53.608Z,10052.00
2018-04-27T11:49:53.848Z,10268.00
2018-04-27T11:50:54.061Z,10200.00
2018-04-27T11:51:54.297Z,10136.00
2018-04-27T11:52:54.532Z,10184.00
2018-04-27T11:53:54.765Z,10328.00
2018-04-27T11:54:55.000Z,10280.00
2018-04-27T11:55:55.223Z,10308.00
2018-04-27T11:56:55.459Z,10272.00
2018-04-27T11:57:55.693Z,10072.00
2018-04-27T11:58:55.922Z,10520.00
2018-04-27T11:59:56.156Z,10316.00
2018-04-27T12:00:56.389Z,10396.00
2018-04-27T12:01:56.622Z,10148.00
2018-04-27T12:02:56.860Z,10788.00
2018-04-27T12:03:57.099Z,10656.00
2018-04-27T12:04:57.320Z,10104.00
2018-04-27T12:05:57.552Z,10112.00
2018-04-27T12:06:57.782Z,9912.00
2018-04-27T12:07:58.018Z,9616.00
2018-04-27T12:08:58.257Z,9556.00
2018-04-27T12:09:58.494Z,9744.00
2018-04-27T12:10:58.718Z,9676.00
2018-04-27T12:11:58.954Z,9392.00
2018-04-27T12:12:59.193Z,9472.00
2018-04-27T12:13:59.432Z,9552.00
2018-04-27T12:14:59.654Z,9428.00
2018-04-27T12:15:59.893Z,9316.00
2018-04-27T12:17:00.131Z,9228.00
2018-04-27T12:18:00.366Z,9196.00
2018-04-27T12:19:00.592Z,9032.00
2018-04-27T12:20:00.823Z,9044.00
2018-04-27T12:21:01.056Z,9272.00
2018-04-27T12:22:01.299Z,9176.00
2018-04-27T12:23:01.552Z,9356.00
2018-04-27T12:24:01.804Z,9504.00
2018-04-27T12:25:02.043Z,9808.00